Time,TemperatureF,DewpointF,PressureIn,WindDirection,WindDirectionDegrees,WindSpeedMPH,WindSpeedGustMPH,Humidity,HourlyPrecipIn,Conditions,Clouds,dailyrainin,SolarRadiationWatts/m^2,SoftwareType,DateUTC
2013-05-12 00:06:00,43.1,26.7,30.03,WNW,301,1.0,1.0,52,0.00,,,0.00,0,Wunderground v.1.15,2013-05-12 05:06:00,
2013-05-12 00:11:00,43.0,27.0,30.03,NW,312,1.0,1.0,53,0.00,,,0.00,0,Wunderground v.1.15,2013-05-12 05:11:00,
2013-05-12 00:16:00,42.8,26.8,30.03,North,359,0.0,1.0,53,0.00,,,0.00,0,Wunderground v.1.15,2013-05-12 05:16:00,
2013-05-12 00:21:00,42.7,26.7,30.03,NW,313,1.0,1.0,53,0.00,,,0.00,0,Wunderground v.1.15,2013-05-12 05:21:00,
2013-05-12 00:26:00,42.6,27.1,30.03,WNW,303,2.0,5.0,54,0.00,,,0.00,0,Wunderground v.1.15,2013-05-12 05:26:00,
2013-05-12 00:31:00,42.6,27.1,30.03,West,271,2.0,2.0,54,0.00,,,0.00,0,Wunderground v.1.15,2013-05-12 05:31:00,
2013-05-12 00:41:00,42.3,27.3,30.03,WNW,290,2.0,2.0,55,0.00,,,0.00,0,Wunderground v.1.15,2013-05-12 05:41:00,
2013-05-12 00:46:00,42.2,27.2,30.03,North,359,2.0,9.0,55,0.00,,,0.00,0,Wunderground v.1.15,2013-05-12 05:46:00,
2013-05-12 00:56:00,42.2,27.2,30.03,North,359,3.0,10.0,55,0.00,,,0.00,0,Wunderground v.1.15,2013-05-12 05:56:00,
2013-05-12 01:01:00,42.2,27.6,30.03,NW,304,3.0,3.0,56,0.00,,,0.00,0,Wunderground v.1.15,2013-05-12 06:01:00,
2013-05-12 01:06:00,42.0,27.4,30.03,North,359,2.0,3.0,56,0.00,,,0.00,0,Wunderground v.1.15,2013-05-12 06:06:00,
2013-05-12 01:16:00,41.7,27.6,30.03,WNW,289,1.0,1.0,57,0.00,,,0.00,0,Wunderground v.1.15,2013-05-12 06:16:00,
2013-05-12 01:21:00,41.6,27.5,30.03,NW,305,1.0,5.0,57,0.00,,,0.00,0,Wunderground v.1.15,2013-05-12 06:21:00,
2013-05-12 01:31:00,41.3,27.2,30.03,WNW,286,1.0,11.0,57,0.00,,,0.00,0,Wunderground v.1.15,2013-05-12 06:31:00,
2013-05-12 01:41:00,41.3,27.2,30.03,WNW,300,3.0,3.0,57,0.00,,,0.00,0,Wunderground v.1.15,2013-05-12 06:41:00,
2013-05-12 01:51:00,41.1,27.0,30.03,NW,311,1.0,8.0,57,0.00,,,0.00,0,Wunderground v.1.15,2013-05-12 06:51:00,
2013-05-12 01:56:00,41.1,27.0,30.03,WNW,299,2.0,8.0,57,0.00,,,0.00,0,Wunderground v.1.15,2013-05-12 06:56:00,
2013-05-12 02:01:00,41.0,26.9,30.03,North,359,1.0,1.0,57,0.00,,,0.00,0,Wunderground v.1.15,2013-05-12 07:01:00,
2013-05-12 02:11:00,41.0,26.5,30.03,North,359,2.0,4.0,56,0.00,,,0.00,0,Wunderground v.1.15,2013-05-12 07:11:00,
2013-05-12 02:16:00,40.9,26.4,30.03,WNW,283,2.0,8.0,56,0.00,,,0.00,0,Wunderground v.1.15,2013-05-12 07:16:00,
2013-05-12 02:21:00,40.9,26.0,30.03,North,359,2.0,2.0,55,0.00,,,0.00,0,Wunderground v.1.15,2013-05-12 07:21:00,
2013-05-12 02:31:00,41.0,26.1,30.03,North,359,2.0,2.0,55,0.00,,,0.00,0,Wunderground v.1.15,2013-05-12 07:31:00,
2013-05-12 02:36:00,41.1,25.7,30.03,WNW,291,3.0,3.0,54,0.00,,,0.00,0,Wunderground v.1.15,2013-05-12 07:36:00,
2013-05-12 02:46:00,40.9,26.0,30.03,North,359,1.0,2.0,55,0.00,,,0.00,0,Wunderground v.1.15,2013-05-12 07:46:00,
2013-05-12 02:51:00,40.9,26.0,30.04,NW,312,1.0,1.0,55,0.00,,,0.00,0,Wunderground v.1.15,2013-05-12 07:51:00,
2013-05-12 03:01:00,40.8,25.9,30.03,North,359,3.0,3.0,55,0.00,,,0.00,0,Wunderground v.1.15,2013-05-12 08:01:00,
2013-05-12 03:11:00,40.5,26.0,30.03,North,359,2.0,2.0,56,0.00,,,0.00,0,Wunderground v.1.15,2013-05-12 08:11:00,
2013-05-12 03:21:00,40.4,26.4,30.03,North,359,1.0,1.0,57,0.00,,,0.00,0,Wunderground v.1.15,2013-05-12 08:21:00,
2013-05-12 03:26:00,40.2,26.6,30.03,WNW,301,1.0,1.0,58,0.00,,,0.00,0,Wunderground v.1.15,2013-05-12 08:26:00,
2013-05-12 03:36:00,40.0,26.4,30.03,NW,320,1.0,1.0,58,0.00,,,0.00,0,Wunderground v.1.15,2013-05-12 08:36:00,
2013-05-12 03:41:00,39.9,26.3,30.03,WNW,299,1.0,8.0,58,0.00,,,0.00,0,Wunderground v.1.15,2013-05-12 08:41:00,
2013-05-12 03:51:00,39.7,26.5,30.04,North,359,2.0,2.0,59,0.00,,,0.00,0,Wunderground v.1.15,2013-05-12 08:51:00,
2013-05-12 03:56:00,39.5,26.8,30.04,WNW,292,1.0,2.0,60,0.00,,,0.00,0,Wunderground v.1.15,2013-05-12 08:56:00,
2013-05-12 04:06:00,39.5,25.9,30.04,North,4,2.0,11.0,58,0.00,,,0.00,0,Wunderground v.1.15,2013-05-12 09:06:00,
2013-05-12 04:16:00,39.4,25.8,30.04,NW,306,2.0,2.0,58,0.00,,,0.00,0,Wunderground v.1.15,2013-05-12 09:16:00,
2013-05-12 04:21:00,39.3,26.2,30.04,North,359,2.0,2.0,59,0.00,,,0.00,0,Wunderground v.1.15,2013-05-12 09:21:00,
2013-05-12 04:31:00,39.3,26.2,30.04,NW,324,3.0,3.0,59,0.00,,,0.00,0,Wunderground v.1.15,2013-05-12 09:31:00,
2013-05-12 04:36:00,39.1,26.0,30.04,NNW,335,2.0,3.0,59,0.00,,,0.00,0,Wunderground v.1.15,2013-05-12 09:36:00,
2013-05-12 04:41:00,39.0,26.3,30.04,North,4,2.0,2.0,60,0.00,,,0.00,0,Wunderground v.1.15,2013-05-12 09:41:00,
2013-05-12 04:51:00,38.8,25.7,30.05,North,359,1.0,1.0,59,0.00,,,0.00,0,Wunderground v.1.15,2013-05-12 09:51:00,
2013-05-12 05:01:00,38.5,25.8,30.05,North,359,1.0,1.0,60,0.00,,,0.00,0,Wunderground v.1.15,2013-05-12 10:01:00,
2013-05-12 05:11:00,38.3,25.6,30.05,North,359,0.0,0.0,60,0.00,,,0.00,0,Wunderground v.1.15,2013-05-12 10:11:00,
2013-05-12 05:21:00,37.9,25.6,30.05,NW,307,0.0,0.0,61,0.00,,,0.00,0,Wunderground v.1.15,2013-05-12 10:21:00,
2013-05-12 05:31:00,37.6,25.7,30.06,NW,317,0.0,0.0,62,0.00,,,0.00,5,Wunderground v.1.15,2013-05-12 10:31:00,
2013-05-12 05:36:00,37.6,25.7,30.06,North,359,0.0,4.0,62,0.00,,,0.00,7,Wunderground v.1.15,2013-05-12 10:36:00,
2013-05-12 05:41:00,37.6,25.7,30.06,North,359,0.0,0.0,62,0.00,,,0.00,9,Wunderground v.1.15,2013-05-12 10:41:00,
2013-05-12 05:51:00,37.5,26.4,30.06,WNW,289,0.0,0.0,64,0.00,,,0.00,14,Wunderground v.1.15,2013-05-12 10:51:00,
2013-05-12 06:01:00,37.3,27.0,30.06,North,359,1.0,2.0,66,0.00,,,0.00,18,Wunderground v.1.15,2013-05-12 11:01:00,
2013-05-12 06:11:00,37.1,27.2,30.07,West,278,1.0,1.0,67,0.00,,,0.00,25,Wunderground v.1.15,2013-05-12 11:11:00,
2013-05-12 06:21:00,37.5,27.2,30.07,WNW,300,2.0,2.0,66,0.00,,,0.00,28,Wunderground v.1.15,2013-05-12 11:21:00,
2013-05-12 06:26:00,37.7,27.0,30.07,WNW,286,3.0,4.0,65,0.00,,,0.00,30,Wunderground v.1.15,2013-05-12 11:26:00,
2013-05-12 06:31:00,38.0,26.9,30.07,North,349,2.0,4.0,64,0.00,,,0.00,32,Wunderground v.1.15,2013-05-12 11:31:00,
2013-05-12 06:41:00,38.6,26.3,30.07,NNW,335,5.0,5.0,61,0.00,,,0.00,42,Wunderground v.1.15,2013-05-12 11:41:00,
2013-05-12 06:46:00,38.9,26.6,30.07,North,359,4.0,5.0,61,0.00,,,0.00,148,Wunderground v.1.15,2013-05-12 11:46:00,
2013-05-12 06:51:00,39.2,26.1,30.08,North,359,5.0,5.0,59,0.00,,,0.00,167,Wunderground v.1.15,2013-05-12 11:51:00,
2013-05-12 07:01:00,40.0,26.0,30.08,North,349,4.0,9.0,57,0.00,,,0.00,206,Wunderground v.1.15,2013-05-12 12:01:00,
2013-05-12 07:06:00,40.2,26.2,30.08,NNW,329,3.0,9.0,57,0.00,,,0.00,225,Wunderground v.1.15,2013-05-12 12:06:00,
2013-05-12 07:16:00,40.5,26.0,30.08,NNW,341,7.0,8.0,56,0.00,,,0.00,262,Wunderground v.1.15,2013-05-12 12:16:00,
2013-05-12 07:26:00,40.7,25.3,30.08,North,359,6.0,13.0,54,0.00,,,0.00,287,Wunderground v.1.15,2013-05-12 12:26:00,
2013-05-12 07:31:00,40.8,25.4,30.08,WNW,303,8.0,8.0,54,0.00,,,0.00,232,Wunderground v.1.15,2013-05-12 12:31:00,
2013-05-12 07:41:00,41.1,23.4,30.08,NNW,336,8.0,8.0,49,0.00,,,0.00,341,Wunderground v.1.15,2013-05-12 12:41:00,
2013-05-12 07:46:00,40.9,23.7,30.08,North,354,12.0,15.0,50,0.00,,,0.00,364,Wunderground v.1.15,2013-05-12 12:46:00,
2013-05-12 07:56:00,41.1,23.9,30.08,North,4,11.0,15.0,50,0.00,,,0.00,396,Wunderground v.1.15,2013-05-12 12:56:00,
2013-05-12 08:01:00,41.2,24.4,30.08,North,359,12.0,18.0,51,0.00,,,0.00,343,Wunderground v.1.15,2013-05-12 13:01:00,
2013-05-12 08:06:00,41.4,24.6,30.08,NNE,17,10.0,18.0,51,0.00,,,0.00,297,Wunderground v.1.15,2013-05-12 13:06:00,
2013-05-12 08:16:00,42.3,24.5,30.09,NNW,333,6.0,13.0,49,0.00,,,0.00,471,Wunderground v.1.15,2013-05-12 13:16:00,
2013-05-12 08:21:00,42.5,23.2,30.09,NW,312,7.0,10.0,46,0.00,,,0.00,485,Wunderground v.1.15,2013-05-12 13:21:00,
2013-05-12 08:31:00,42.5,23.2,30.09,North,354,8.0,8.0,46,0.00,,,0.00,529,Wunderground v.1.15,2013-05-12 13:31:00,
2013-05-12 08:36:00,42.9,23.5,30.09,North,349,6.0,8.0,46,0.00,,,0.00,510,Wunderground v.1.15,2013-05-12 13:36:00,
2013-05-12 08:46:00,43.5,23.0,30.10,NW,304,5.0,7.0,44,0.00,,,0.00,494,Wunderground v.1.15,2013-05-12 13:46:00,
2013-05-12 08:51:00,43.5,22.5,30.09,North,359,6.0,12.0,43,0.00,,,0.00,599,Wunderground v.1.15,2013-05-12 13:51:00,
2013-05-12 08:56:00,43.8,22.7,30.09,West,264,6.0,12.0,43,0.00,,,0.00,598,Wunderground v.1.15,2013-05-12 13:56:00,
2013-05-12 09:06:00,43.8,22.2,30.09,NW,321,8.0,8.0,42,0.00,,,0.00,624,Wunderground v.1.15,2013-05-12 14:06:00,
2013-05-12 09:16:00,43.7,22.6,30.10,North,359,9.0,16.0,43,0.00,,,0.00,656,Wunderground v.1.15,2013-05-12 14:16:00,
2013-05-12 09:21:00,43.8,22.7,30.10,NW,324,8.0,8.0,43,0.00,,,0.00,670,Wunderground v.1.15,2013-05-12 14:21:00,
2013-05-12 09:31:00,44.1,23.0,30.10,North,359,6.0,8.0,43,0.00,,,0.00,700,Wunderground v.1.15,2013-05-12 14:31:00,
2013-05-12 09:36:00,44.1,22.4,30.10,North,359,8.0,14.0,42,0.00,,,0.00,714,Wunderground v.1.15,2013-05-12 14:36:00,
2013-05-12 09:41:00,44.5,22.2,30.09,NNW,333,7.0,7.0,41,0.00,,,0.00,724,Wunderground v.1.15,2013-05-12 14:41:00,
2013-05-12 09:46:00,45.3,22.4,30.10,WNW,302,6.0,7.0,40,0.00,,,0.00,737,Wunderground v.1.15,2013-05-12 14:46:00,
2013-05-12 09:56:00,45.4,22.5,30.10,WSW,247,7.0,8.0,40,0.00,,,0.00,768,Wunderground v.1.15,2013-05-12 14:56:00,
2013-05-12 10:01:00,45.4,23.0,30.10,West,273,7.0,10.0,41,0.00,,,0.00,777,Wunderground v.1.15,2013-05-12 15:01:00,
2013-05-12 10:11:00,45.8,23.4,30.10,NW,305,7.0,12.0,41,0.00,,,0.00,833,Wunderground v.1.15,2013-05-12 15:11:00,
2013-05-12 10:21:00,46.3,23.3,30.11,North,359,6.0,10.0,40,0.00,,,0.00,826,Wunderground v.1.15,2013-05-12 15:21:00,
2013-05-12 10:26:00,46.1,22.5,30.11,North,4,7.0,10.0,39,0.00,,,0.00,842,Wunderground v.1.15,2013-05-12 15:26:00,
2013-05-12 10:31:00,46.0,23.6,30.11,NNW,344,8.0,8.0,41,0.00,,,0.00,851,Wunderground v.1.15,2013-05-12 15:31:00,
2013-05-12 10:41:00,46.4,24.5,30.11,North,359,6.0,12.0,42,0.00,,,0.00,877,Wunderground v.1.15,2013-05-12 15:41:00,
2013-05-12 10:46:00,46.4,23.4,30.11,NW,309,8.0,12.0,40,0.00,,,0.00,879,Wunderground v.1.15,2013-05-12 15:46:00,
2013-05-12 10:56:00,46.8,23.7,30.11,NNE,23,4.0,6.0,40,0.00,,,0.00,900,Wunderground v.1.15,2013-05-12 15:56:00,
2013-05-12 11:01:00,46.9,24.4,30.11,WNW,298,4.0,4.0,41,0.00,,,0.00,951,Wunderground v.1.15,2013-05-12 16:01:00,
2013-05-12 11:06:00,47.6,23.8,30.11,NNW,339,4.0,9.0,39,0.00,,,0.00,930,Wunderground v.1.15,2013-05-12 16:06:00,
2013-05-12 11:16:00,47.8,24.0,30.11,NW,305,7.0,7.0,39,0.00,,,0.00,930,Wunderground v.1.15,2013-05-12 16:16:00,
2013-05-12 11:21:00,47.9,23.5,30.11,WNW,302,4.0,4.0,38,0.00,,,0.00,939,Wunderground v.1.15,2013-05-12 16:21:00,
2013-05-12 11:31:00,47.3,23.6,30.11,North,359,9.0,9.0,39,0.00,,,0.00,976,Wunderground v.1.15,2013-05-12 16:31:00,
2013-05-12 11:41:00,48.7,24.2,30.11,NW,316,5.0,5.0,38,0.00,,,0.00,979,Wunderground v.1.15,2013-05-12 16:41:00,
2013-05-12 11:46:00,49.1,25.2,30.11,North,359,5.0,10.0,39,0.00,,,0.00,1039,Wunderground v.1.15,2013-05-12 16:46:00,
2013-05-12 11:51:00,49.1,25.2,30.11,North,359,7.0,8.0,39,0.00,,,0.00,1102,Wunderground v.1.15,2013-05-12 16:51:00,
2013-05-12 12:01:00,48.3,25.1,30.11,North,359,5.0,12.0,40,0.00,,,0.00,1146,Wunderground v.1.15,2013-05-12 17:01:00,
2013-05-12 12:06:00,48.3,24.5,30.11,North,359,7.0,12.0,39,0.00,,,0.00,779,Wunderground v.1.15,2013-05-12 17:06:00,
2013-05-12 12:16:00,48.5,25.2,30.10,North,359,6.0,8.0,40,0.00,,,0.00,218,Wunderground v.1.15,2013-05-12 17:16:00,
2013-05-12 12:21:00,48.9,25.0,30.10,North,359,5.0,12.0,39,0.00,,,0.00,1134,Wunderground v.1.15,2013-05-12 17:21:00,
2013-05-12 12:31:00,49.7,25.7,30.10,North,359,4.0,4.0,39,0.00,,,0.00,1118,Wunderground v.1.15,2013-05-12 17:31:00,
2013-05-12 12:36:00,50.3,25.0,30.10,West,280,4.0,12.0,37,0.00,,,0.00,1106,Wunderground v.1.15,2013-05-12 17:36:00,
2013-05-12 12:41:00,50.3,25.6,30.10,North,359,7.0,7.0,38,0.00,,,0.00,1056,Wunderground v.1.15,2013-05-12 17:41:00,
2013-05-12 12:51:00,50.4,25.7,30.10,West,280,5.0,5.0,38,0.00,,,0.00,1107,Wunderground v.1.15,2013-05-12 17:51:00,
2013-05-12 13:01:00,50.7,26.0,30.10,North,359,6.0,14.0,38,0.00,,,0.00,1167,Wunderground v.1.15,2013-05-12 18:01:00,
2013-05-12 13:06:00,50.1,24.8,30.10,NW,314,6.0,14.0,37,0.00,,,0.00,1132,Wunderground v.1.15,2013-05-12 18:06:00,
2013-05-12 13:16:00,50.9,26.2,30.11,WNW,285,4.0,7.0,38,0.00,,,0.00,278,Wunderground v.1.15,2013-05-12 18:16:00,
2013-05-12 13:21:00,50.1,26.1,30.11,North,359,4.0,4.0,39,0.00,,,0.00,1179,Wunderground v.1.15,2013-05-12 18:21:00,
2013-05-12 13:31:00,50.9,24.2,30.10,WSW,253,5.0,5.0,35,0.00,,,0.00,1167,Wunderground v.1.15,2013-05-12 18:31:00,
2013-05-12 13:36:00,50.7,25.3,30.11,West,278,7.0,7.0,37,0.00,,,0.00,306,Wunderground v.1.15,2013-05-12 18:36:00,
2013-05-12 13:46:00,51.1,25.0,30.10,NNW,338,5.0,7.0,36,0.00,,,0.00,272,Wunderground v.1.15,2013-05-12 18:46:00,
2013-05-12 13:51:00,51.2,25.1,30.10,NNW,342,4.0,8.0,36,0.00,,,0.00,1095,Wunderground v.1.15,2013-05-12 18:51:00,
2013-05-12 14:01:00,52.3,26.1,30.10,NW,311,5.0,5.0,36,0.00,,,0.00,1220,Wunderground v.1.15,2013-05-12 19:01:00,
2013-05-12 14:06:00,52.5,25.6,30.10,NW,304,6.0,7.0,35,0.00,,,0.00,1165,Wunderground v.1.15,2013-05-12 19:06:00,
2013-05-12 14:16:00,53.0,24.6,30.10,North,359,5.0,6.0,33,0.00,,,0.00,1104,Wunderground v.1.15,2013-05-12 19:16:00,
2013-05-12 14:26:00,52.9,24.5,30.10,WNW,295,8.0,14.0,33,0.00,,,0.00,1153,Wunderground v.1.15,2013-05-12 19:26:00,
2013-05-12 14:31:00,53.2,24.1,30.10,North,359,6.0,7.0,32,0.00,,,0.00,1151,Wunderground v.1.15,2013-05-12 19:31:00,
2013-05-12 14:41:00,53.4,24.2,30.09,West,278,6.0,6.0,32,0.00,,,0.00,1136,Wunderground v.1.15,2013-05-12 19:41:00,
2013-05-12 14:46:00,52.6,23.5,30.09,North,359,7.0,7.0,32,0.00,,,0.00,267,Wunderground v.1.15,2013-05-12 19:46:00,
2013-05-12 14:51:00,52.3,23.3,30.09,NNW,345,7.0,7.0,32,0.00,,,0.00,366,Wunderground v.1.15,2013-05-12 19:51:00,
2013-05-12 15:01:00,52.1,24.6,30.09,NW,314,4.0,4.0,34,0.00,,,0.00,1027,Wunderground v.1.15,2013-05-12 20:01:00,
2013-05-12 15:06:00,52.6,25.0,30.09,NW,305,5.0,5.0,34,0.00,,,0.00,991,Wunderground v.1.15,2013-05-12 20:06:00,
2013-05-12 15:16:00,53.4,25.0,30.09,NNW,334,6.0,8.0,33,0.00,,,0.00,1041,Wunderground v.1.15,2013-05-12 20:16:00,
2013-05-12 15:21:00,53.5,24.3,30.09,NNW,339,7.0,12.0,32,0.00,,,0.00,1107,Wunderground v.1.15,2013-05-12 20:21:00,
2013-05-12 15:31:00,53.3,24.2,30.08,West,278,5.0,5.0,32,0.00,,,0.00,323,Wunderground v.1.15,2013-05-12 20:31:00,
2013-05-12 15:36:00,53.2,24.1,30.08,North,359,6.0,6.0,32,0.00,,,0.00,213,Wunderground v.1.15,2013-05-12 20:36:00,
2013-05-12 15:46:00,52.9,23.0,30.08,NNW,337,4.0,5.0,31,0.00,,,0.00,965,Wunderground v.1.15,2013-05-12 20:46:00,
2013-05-12 15:51:00,52.1,23.1,30.08,North,359,7.0,7.0,32,0.00,,,0.00,255,Wunderground v.1.15,2013-05-12 20:51:00,
2013-05-12 16:01:00,52.0,23.8,30.08,North,359,5.0,12.0,33,0.00,,,0.00,323,Wunderground v.1.15,2013-05-12 21:01:00,
2013-05-12 16:06:00,52.6,24.3,30.07,West,280,5.0,12.0,33,0.00,,,0.00,861,Wunderground v.1.15,2013-05-12 21:06:00,
2013-05-12 16:16:00,52.7,23.6,30.07,North,359,7.0,7.0,32,0.00,,,0.00,800,Wunderground v.1.15,2013-05-12 21:16:00,
2013-05-12 16:21:00,52.9,23.8,30.07,NNW,339,7.0,7.0,32,0.00,,,0.00,213,Wunderground v.1.15,2013-05-12 21:21:00,
2013-05-12 16:31:00,53.4,27.8,30.07,ENE,69,4.0,7.0,37,0.00,,,0.00,828,Wunderground v.1.15,2013-05-12 21:31:00,
2013-05-12 16:36:00,51.9,30.1,30.07,East,87,5.0,7.0,43,0.00,,,0.00,204,Wunderground v.1.15,2013-05-12 21:36:00,
2013-05-12 16:41:00,49.7,29.2,30.08,East,79,6.0,6.0,45,0.00,,,0.00,174,Wunderground v.1.15,2013-05-12 21:41:00,
2013-05-12 16:51:00,48.5,29.7,30.07,ESE,107,2.0,2.0,48,0.00,,,0.00,216,Wunderground v.1.15,2013-05-12 21:51:00,
2013-05-12 16:56:00,48.6,30.8,30.07,East,100,3.0,3.0,50,0.00,,,0.00,192,Wunderground v.1.15,2013-05-12 21:56:00,
2013-05-12 17:06:00,47.5,30.3,30.08,ENE,73,4.0,4.0,51,0.00,,,0.00,176,Wunderground v.1.15,2013-05-12 22:06:00,
2013-05-12 17:16:00,47.2,30.5,30.08,ENE,77,3.0,4.0,52,0.00,,,0.00,146,Wunderground v.1.15,2013-05-12 22:16:00,
2013-05-12 17:21:00,47.6,31.3,30.08,East,94,2.0,2.0,53,0.00,,,0.00,418,Wunderground v.1.15,2013-05-12 22:21:00,
2013-05-12 17:31:00,47.6,31.3,30.08,ENE,61,3.0,3.0,53,0.00,,,0.00,450,Wunderground v.1.15,2013-05-12 22:31:00,
2013-05-12 17:36:00,47.9,31.1,30.08,East,87,3.0,3.0,52,0.00,,,0.00,448,Wunderground v.1.15,2013-05-12 22:36:00,
2013-05-12 17:41:00,47.9,30.6,30.08,ENE,74,2.0,2.0,51,0.00,,,0.00,269,Wunderground v.1.15,2013-05-12 22:41:00,
2013-05-12 17:46:00,47.5,30.3,30.08,ENE,68,2.0,8.0,51,0.00,,,0.00,364,Wunderground v.1.15,2013-05-12 22:46:00,
2013-05-12 17:51:00,47.2,30.5,30.08,ENE,77,2.0,2.0,52,0.00,,,0.00,193,Wunderground v.1.15,2013-05-12 22:51:00,
2013-05-12 18:01:00,47.1,30.8,30.08,East,83,1.0,1.0,53,0.00,,,0.00,93,Wunderground v.1.15,2013-05-12 23:01:00,
2013-05-12 18:11:00,47.4,31.1,30.08,East,89,1.0,1.0,53,0.00,,,0.00,56,Wunderground v.1.15,2013-05-12 23:11:00,
2013-05-12 18:21:00,46.9,30.6,30.08,SE,142,1.0,1.0,53,0.00,,,0.00,98,Wunderground v.1.15,2013-05-12 23:21:00,
2013-05-12 18:26:00,46.7,30.5,30.08,ENE,73,1.0,1.0,53,0.00,,,0.00,123,Wunderground v.1.15,2013-05-12 23:26:00,
2013-05-12 18:36:00,46.3,30.1,30.08,ESE,109,2.0,5.0,53,0.00,,,0.00,65,Wunderground v.1.15,2013-05-12 23:36:00,
2013-05-12 18:41:00,46.0,30.3,30.08,ESE,104,1.0,1.0,54,0.00,,,0.00,72,Wunderground v.1.15,2013-05-12 23:41:00,
2013-05-12 18:46:00,45.7,30.4,30.08,ESE,110,1.0,1.0,55,0.00,,,0.00,63,Wunderground v.1.15,2013-05-12 23:46:00,
2013-05-12 18:56:00,45.4,31.0,30.08,ESE,120,0.0,0.0,57,0.00,,,0.00,56,Wunderground v.1.15,2013-05-12 23:56:00,
2013-05-12 19:01:00,45.2,31.3,30.08,ESE,102,0.0,1.0,58,0.00,,,0.00,53,Wunderground v.1.15,2013-05-13 00:01:00,
2013-05-12 19:11:00,44.6,31.6,30.08,SE,143,1.0,1.0,60,0.00,,,0.00,54,Wunderground v.1.15,2013-05-13 00:11:00,
2013-05-12 19:21:00,44.2,31.6,30.08,ESE,107,2.0,4.0,61,0.00,,,0.00,49,Wunderground v.1.15,2013-05-13 00:21:00,
2013-05-12 19:26:00,44.2,31.6,30.08,ENE,64,2.0,4.0,61,0.00,,,0.00,44,Wunderground v.1.15,2013-05-13 00:26:00,
2013-05-12 19:31:00,44.1,31.5,30.08,East,98,1.0,1.0,61,0.00,,,0.00,30,Wunderground v.1.15,2013-05-13 00:31:00,
2013-05-12 19:41:00,43.8,31.6,30.08,ESE,121,1.0,1.0,62,0.00,,,0.00,23,Wunderground v.1.15,2013-05-13 00:41:00,
2013-05-12 19:46:00,43.6,31.4,30.08,East,87,1.0,1.0,62,0.00,,,0.00,16,Wunderground v.1.15,2013-05-13 00:46:00,
2013-05-12 19:51:00,43.4,31.2,30.08,East,96,1.0,2.0,62,0.00,,,0.00,11,Wunderground v.1.15,2013-05-13 00:51:00,
2013-05-12 20:01:00,43.1,31.0,30.08,ESE,122,1.0,3.0,62,0.00,,,0.00,5,Wunderground v.1.15,2013-05-13 01:01:00,
2013-05-12 20:06:00,42.9,31.2,30.09,SE,124,0.0,3.0,63,0.00,,,0.00,0,Wunderground v.1.15,2013-05-13 01:06:00,
2013-05-12 20:16:00,42.7,31.0,30.09,SE,129,0.0,0.0,63,0.00,,,0.00,0,Wunderground v.1.15,2013-05-13 01:16:00,
2013-05-12 20:21:00,42.5,30.8,30.09,ESE,119,0.0,0.0,63,0.00,,,0.00,0,Wunderground v.1.15,2013-05-13 01:21:00,
2013-05-12 20:31:00,42.3,30.6,30.09,ESE,121,0.0,0.0,63,0.00,,,0.00,0,Wunderground v.1.15,2013-05-13 01:31:00,
2013-05-12 20:36:00,42.2,30.5,30.09,SE,125,0.0,0.0,63,0.00,,,0.00,0,Wunderground v.1.15,2013-05-13 01:36:00,
2013-05-12 20:41:00,42.2,30.9,30.10,ESE,122,0.0,0.0,64,0.00,,,0.00,0,Wunderground v.1.15,2013-05-13 01:41:00,
2013-05-12 20:51:00,42.1,30.8,30.10,SSE,151,0.0,0.0,64,0.00,,,0.00,0,Wunderground v.1.15,2013-05-13 01:51:00,
2013-05-12 20:56:00,42.1,30.8,30.10,SSE,150,0.0,0.0,64,0.00,,,0.00,0,Wunderground v.1.15,2013-05-13 01:56:00,
2013-05-12 21:01:00,42.0,30.7,30.10,SE,145,0.0,0.0,64,0.00,,,0.00,0,Wunderground v.1.15,2013-05-13 02:01:00,
2013-05-12 21:11:00,42.0,31.1,30.10,SE,146,0.0,0.0,65,0.00,,,0.00,0,Wunderground v.1.15,2013-05-13 02:11:00,
2013-05-12 21:16:00,42.1,31.2,30.10,SSE,166,0.0,0.0,65,0.00,,,0.00,0,Wunderground v.1.15,2013-05-13 02:16:00,
2013-05-12 21:21:00,42.2,31.6,30.10,SSE,167,0.0,0.0,66,0.00,,,0.00,0,Wunderground v.1.15,2013-05-13 02:21:00,
2013-05-12 21:26:00,42.1,31.6,30.10,South,169,0.0,0.0,66,0.00,,,0.00,0,Wunderground v.1.15,2013-05-13 02:26:00,
2013-05-12 21:36:00,42.2,31.6,30.10,South,183,0.0,0.0,66,0.00,,,0.00,0,Wunderground v.1.15,2013-05-13 02:36:00,
2013-05-12 21:41:00,42.3,31.7,30.10,South,174,0.0,0.0,66,0.00,,,0.00,0,Wunderground v.1.15,2013-05-13 02:41:00,
2013-05-12 21:46:00,42.3,31.4,30.11,South,172,0.0,0.0,65,0.00,,,0.00,0,Wunderground v.1.15,2013-05-13 02:46:00,
2013-05-12 21:56:00,42.3,31.4,30.11,SSE,166,0.0,0.0,65,0.00,,,0.00,0,Wunderground v.1.15,2013-05-13 02:56:00,
2013-05-12 22:01:00,42.2,31.3,30.11,SSE,164,0.0,0.0,65,0.00,,,0.00,0,Wunderground v.1.15,2013-05-13 03:01:00,
2013-05-12 22:11:00,42.1,31.6,30.10,South,171,0.0,0.0,66,0.00,,,0.00,0,Wunderground v.1.15,2013-05-13 03:11:00,
2013-05-12 22:21:00,42.2,31.6,30.11,South,175,0.0,0.0,66,0.00,,,0.00,0,Wunderground v.1.15,2013-05-13 03:21:00,
2013-05-12 22:26:00,42.2,32.0,30.11,South,175,0.0,0.0,67,0.00,,,0.00,0,Wunderground v.1.15,2013-05-13 03:26:00,
2013-05-12 22:36:00,42.3,32.1,30.11,South,174,0.0,0.0,67,0.00,,,0.00,0,Wunderground v.1.15,2013-05-13 03:36:00,
2013-05-12 22:41:00,42.4,32.2,30.11,South,175,0.0,0.0,67,0.00,,,0.00,0,Wunderground v.1.15,2013-05-13 03:41:00,
2013-05-12 22:46:00,42.5,32.3,30.11,South,178,0.0,0.0,67,0.00,,,0.00,0,Wunderground v.1.15,2013-05-13 03:46:00,
2013-05-12 22:51:00,42.6,32.4,30.10,North,359,0.0,0.0,67,0.00,,,0.00,0,Wunderground v.1.15,2013-05-13 03:51:00,
2013-05-12 23:01:00,42.6,32.8,30.10,North,359,1.0,1.0,68,0.00,,,0.00,0,Wunderground v.1.15,2013-05-13 04:01:00,
2013-05-12 23:06:00,42.6,32.8,30.10,North,359,1.0,3.0,68,0.00,,,0.00,0,Wunderground v.1.15,2013-05-13 04:06:00,
2013-05-12 23:16:00,42.5,32.7,30.10,South,191,0.0,0.0,68,0.00,,,0.00,0,Wunderground v.1.15,2013-05-13 04:16:00,
2013-05-12 23:21:00,42.4,32.6,30.10,SSW,197,0.0,0.0,68,0.00,,,0.00,0,Wunderground v.1.15,2013-05-13 04:21:00,
2013-05-12 23:31:00,42.3,32.8,30.10,North,359,0.0,0.0,69,0.00,,,0.00,0,Wunderground v.1.15,2013-05-13 04:31:00,
2013-05-12 23:36:00,42.2,32.8,30.10,SSW,199,0.0,0.0,69,0.00,,,0.00,0,Wunderground v.1.15,2013-05-13 04:36:00,
2013-05-12 23:46:00,42.2,33.1,30.10,SSW,204,0.0,0.0,70,0.00,,,0.00,0,Wunderground v.1.15,2013-05-13 04:46:00,
2013-05-12 23:51:00,42.1,33.0,30.10,SSW,206,0.0,0.0,70,0.00,,,0.00,0,Wunderground v.1.15,2013-05-13 04:51:00,
2013-05-12 23:56:00,42.1,33.0,30.10,SSW,197,0.0,0.0,70,0.00,,,0.00,0,Wunderground v.1.15,2013-05-13 04:56:00,